sensor_id;sensor_type;location;lat;lon;timestamp;pressure;altitude;pressure_sealevel;temperature;humidity
13974;BME280;7060;43.770;4.008;2023-04-09T00:01:03;101383.16;;;6.43;59.91
13974;BME280;7060;43.770;4.008;2023-04-09T00:03:32;101386.34;;;6.36;60.24
13974;BME280;7060;43.770;4.008;2023-04-09T00:06:01;101380.09;;;6.37;60.05
13974;BME280;7060;43.770;4.008;2023-04-09T00:08:29;101382.19;;;6.32;60.36
13974;BME280;7060;43.770;4.008;2023-04-09T00:10:58;101386.44;;;6.34;60.04
13974;BME280;7060;43.770;4.008;2023-04-09T00:13:28;101387.50;;;6.32;59.99
13974;BME280;7060;43.770;4.008;2023-04-09T00:16:06;101390.66;;;6.24;60.03
13974;BME280;7060;43.770;4.008;2023-04-09T00:18:35;101388.50;;;6.17;60.77
13974;BME280;7060;43.770;4.008;2023-04-09T00:21:04;101378.22;;;6.25;60.37
13974;BME280;7060;43.770;4.008;2023-04-09T00:23:34;101383.53;;;6.25;60.38
13974;BME280;7060;43.770;4.008;2023-04-09T00:26:03;101383.94;;;6.19;60.69
13974;BME280;7060;43.770;4.008;2023-04-09T00:28:34;101382.63;;;6.11;60.40
13974;BME280;7060;43.770;4.008;2023-04-09T00:31:05;101385.72;;;6.05;60.67
13974;BME280;7060;43.770;4.008;2023-04-09T00:33:33;101375.59;;;5.98;60.75
13974;BME280;7060;43.770;4.008;2023-04-09T00:36:02;101382.34;;;5.89;60.92
13974;BME280;7060;43.770;4.008;2023-04-09T00:38:31;101379.28;;;5.83;60.98
13974;BME280;7060;43.770;4.008;2023-04-09T00:40:59;101377.75;;;5.78;61.18
13974;BME280;7060;43.770;4.008;2023-04-09T00:43:28;101376.16;;;5.76;61.48
13974;BME280;7060;43.770;4.008;2023-04-09T00:45:59;101366.88;;;5.69;61.56
13974;BME280;7060;43.770;4.008;2023-04-09T00:48:27;101368.22;;;5.62;61.82
13974;BME280;7060;43.770;4.008;2023-04-09T00:50:56;101366.50;;;5.61;61.46
13974;BME280;7060;43.770;4.008;2023-04-09T00:53:24;101368.84;;;5.53;62.05
13974;BME280;7060;43.770;4.008;2023-04-09T00:55:54;101368.38;;;5.46;61.97
13974;BME280;7060;43.770;4.008;2023-04-09T00:58:22;101371.69;;;5.50;61.76
13974;BME280;7060;43.770;4.008;2023-04-09T01:00:51;101372.91;;;5.44;61.95
13974;BME280;7060;43.770;4.008;2023-04-09T01:03:22;101365.72;;;5.46;61.99
13974;BME280;7060;43.770;4.008;2023-04-09T01:05:59;101361.81;;;5.52;61.78
13974;BME280;7060;43.770;4.008;2023-04-09T01:08:35;101376.13;;;5.49;61.86
13974;BME280;7060;43.770;4.008;2023-04-09T01:11:19;101382.38;;;5.48;61.53
13974;BME280;7060;43.770;4.008;2023-04-09T01:14:00;101370.34;;;5.42;61.79
13974;BME280;7060;43.770;4.008;2023-04-09T01:16:34;101366.94;;;5.40;61.93
13974;BME280;7060;43.770;4.008;2023-04-09T01:19:09;101362.50;;;5.41;61.29
13974;BME280;7060;43.770;4.008;2023-04-09T01:21:45;101356.53;;;5.37;61.54
13974;BME280;7060;43.770;4.008;2023-04-09T01:24:24;101358.53;;;5.34;61.79
13974;BME280;7060;43.770;4.008;2023-04-09T01:27:02;101355.00;;;5.33;61.88
13974;BME280;7060;43.770;4.008;2023-04-09T01:30:01;101361.47;;;5.29;61.90
13974;BME280;7060;43.770;4.008;2023-04-09T01:32:34;101357.13;;;5.28;61.25
13974;BME280;7060;43.770;4.008;2023-04-09T01:35:06;101355.63;;;5.24;60.86
13974;BME280;7060;43.770;4.008;2023-04-09T01:37:36;101353.81;;;5.25;61.21
13974;BME280;7060;43.770;4.008;2023-04-09T01:40:07;101339.81;;;5.23;61.32
13974;BME280;7060;43.770;4.008;2023-04-09T01:42:36;101339.44;;;5.15;61.14
13974;BME280;7060;43.770;4.008;2023-04-09T01:45:09;101342.09;;;5.15;61.57
13974;BME280;7060;43.770;4.008;2023-04-09T01:47:40;101341.59;;;5.08;61.47
13974;BME280;7060;43.770;4.008;2023-04-09T01:50:09;101340.66;;;5.09;61.25
13974;BME280;7060;43.770;4.008;2023-04-09T01:52:38;101340.09;;;5.04;61.76
13974;BME280;7060;43.770;4.008;2023-04-09T01:55:07;101341.44;;;4.97;62.16
13974;BME280;7060;43.770;4.008;2023-04-09T01:57:35;101339.63;;;4.97;61.55
13974;BME280;7060;43.770;4.008;2023-04-09T02:00:08;101344.28;;;4.94;61.98
13974;BME280;7060;43.770;4.008;2023-04-09T02:02:48;101343.09;;;4.84;61.95
13974;BME280;7060;43.770;4.008;2023-04-09T02:05:24;101339.69;;;4.82;62.05
13974;BME280;7060;43.770;4.008;2023-04-09T02:07:55;101342.63;;;4.77;62.55
13974;BME280;7060;43.770;4.008;2023-04-09T02:10:29;101340.19;;;4.74;62.38
13974;BME280;7060;43.770;4.008;2023-04-09T02:13:00;101332.78;;;4.65;62.86
13974;BME280;7060;43.770;4.008;2023-04-09T02:15:33;101326.81;;;4.61;63.00
13974;BME280;7060;43.770;4.008;2023-04-09T02:18:04;101335.53;;;4.63;62.92
13974;BME280;7060;43.770;4.008;2023-04-09T02:20:32;101330.91;;;4.67;62.83
13974;BME280;7060;43.770;4.008;2023-04-09T02:23:01;101330.31;;;4.76;62.20
13974;BME280;7060;43.770;4.008;2023-04-09T02:25:29;101336.47;;;4.76;61.92
13974;BME280;7060;43.770;4.008;2023-04-09T02:27:58;101330.31;;;4.76;62.53
13974;BME280;7060;43.770;4.008;2023-04-09T02:30:27;101333.63;;;4.79;61.57
13974;BME280;7060;43.770;4.008;2023-04-09T02:32:57;101337.69;;;4.85;62.03
13974;BME280;7060;43.770;4.008;2023-04-09T02:35:25;101332.22;;;4.88;61.87
13974;BME280;7060;43.770;4.008;2023-04-09T02:37:53;101334.97;;;4.87;61.95
13974;BME280;7060;43.770;4.008;2023-04-09T02:40:22;101337.97;;;4.81;62.07
13974;BME280;7060;43.770;4.008;2023-04-09T02:42:50;101335.69;;;4.74;61.30
13974;BME280;7060;43.770;4.008;2023-04-09T02:45:20;101331.75;;;4.67;61.96
13974;BME280;7060;43.770;4.008;2023-04-09T02:47:49;101335.97;;;4.56;62.38
13974;BME280;7060;43.770;4.008;2023-04-09T02:50:19;101328.97;;;4.55;61.98
13974;BME280;7060;43.770;4.008;2023-04-09T02:52:50;101326.31;;;4.55;62.01
13974;BME280;7060;43.770;4.008;2023-04-09T02:55:19;101330.69;;;4.56;62.13
13974;BME280;7060;43.770;4.008;2023-04-09T02:57:48;101328.97;;;4.55;61.13
13974;BME280;7060;43.770;4.008;2023-04-09T03:00:16;101326.06;;;4.45;61.02
13974;BME280;7060;43.770;4.008;2023-04-09T03:02:45;101324.44;;;4.42;61.50
13974;BME280;7060;43.770;4.008;2023-04-09T03:05:14;101329.81;;;4.41;61.08
13974;BME280;7060;43.770;4.008;2023-04-09T03:07:43;101326.16;;;4.43;61.45
13974;BME280;7060;43.770;4.008;2023-04-09T03:10:13;101334.34;;;4.39;61.17
13974;BME280;7060;43.770;4.008;2023-04-09T03:12:41;101324.88;;;4.35;60.89
13974;BME280;7060;43.770;4.008;2023-04-09T03:15:10;101320.81;;;4.29;61.53
13974;BME280;7060;43.770;4.008;2023-04-09T03:17:39;101329.41;;;4.33;61.00
13974;BME280;7060;43.770;4.008;2023-04-09T03:20:08;101332.75;;;4.36;61.67
13974;BME280;7060;43.770;4.008;2023-04-09T03:22:38;101329.69;;;4.28;60.82
13974;BME280;7060;43.770;4.008;2023-04-09T03:25:20;101326.28;;;4.26;60.76
13974;BME280;7060;43.770;4.008;2023-04-09T03:27:52;101318.44;;;4.25;61.07
13974;BME280;7060;43.770;4.008;2023-04-09T03:30:39;101327.69;;;4.18;61.55
13974;BME280;7060;43.770;4.008;2023-04-09T03:33:08;101326.16;;;4.14;61.77
13974;BME280;7060;43.770;4.008;2023-04-09T03:35:47;101322.75;;;4.12;61.89
13974;BME280;7060;43.770;4.008;2023-04-09T03:38:20;101325.13;;;4.16;62.15
13974;BME280;7060;43.770;4.008;2023-04-09T03:40:50;101327.31;;;4.24;62.33
13974;BME280;7060;43.770;4.008;2023-04-09T03:43:19;101321.56;;;4.31;61.83
13974;BME280;7060;43.770;4.008;2023-04-09T03:45:50;101334.31;;;4.25;62.18
13974;BME280;7060;43.770;4.008;2023-04-09T03:48:22;101333.75;;;4.20;62.01
13974;BME280;7060;43.770;4.008;2023-04-09T03:50:51;101336.84;;;4.12;62.98
13974;BME280;7060;43.770;4.008;2023-04-09T03:53:28;101337.72;;;4.27;62.83
13974;BME280;7060;43.770;4.008;2023-04-09T03:56:03;101343.16;;;4.39;62.89
13974;BME280;7060;43.770;4.008;2023-04-09T03:58:33;101324.72;;;4.38;62.31
13974;BME280;7060;43.770;4.008;2023-04-09T04:01:02;101333.16;;;4.59;62.33
13974;BME280;7060;43.770;4.008;2023-04-09T04:03:50;101344.13;;;4.67;62.53
13974;BME280;7060;43.770;4.008;2023-04-09T04:06:23;101339.50;;;4.70;61.78
13974;BME280;7060;43.770;4.008;2023-04-09T04:09:01;101342.78;;;4.60;62.12
13974;BME280;7060;43.770;4.008;2023-04-09T04:11:42;101349.97;;;4.58;62.34
13974;BME280;7060;43.770;4.008;2023-04-09T04:14:10;101345.34;;;4.61;62.41
13974;BME280;7060;43.770;4.008;2023-04-09T04:16:42;101352.94;;;4.67;62.32
13974;BME280;7060;43.770;4.008;2023-04-09T04:19:14;101353.13;;;4.64;62.35
13974;BME280;7060;43.770;4.008;2023-04-09T04:21:46;101357.75;;;4.61;62.00
13974;BME280;7060;43.770;4.008;2023-04-09T04:24:15;101361.25;;;4.61;62.20
13974;BME280;7060;43.770;4.008;2023-04-09T04:26:45;101355.69;;;4.66;61.82
13974;BME280;7060;43.770;4.008;2023-04-09T04:29:16;101365.41;;;4.65;61.59
13974;BME280;7060;43.770;4.008;2023-04-09T04:31:51;101353.66;;;4.55;62.61
13974;BME280;7060;43.770;4.008;2023-04-09T04:34:22;101350.91;;;4.57;62.18
13974;BME280;7060;43.770;4.008;2023-04-09T04:36:59;101354.16;;;4.62;62.28
13974;BME280;7060;43.770;4.008;2023-04-09T04:39:30;101360.03;;;4.67;62.58
13974;BME280;7060;43.770;4.008;2023-04-09T04:42:09;101367.78;;;4.70;62.00
13974;BME280;7060;43.770;4.008;2023-04-09T04:44:38;101372.31;;;4.68;61.70
13974;BME280;7060;43.770;4.008;2023-04-09T04:47:13;101368.53;;;4.58;61.07
13974;BME280;7060;43.770;4.008;2023-04-09T04:49:42;101373.50;;;4.48;61.12
13974;BME280;7060;43.770;4.008;2023-04-09T04:52:10;101368.19;;;4.34;61.57
13974;BME280;7060;43.770;4.008;2023-04-09T04:54:43;101367.06;;;4.38;62.15
13974;BME280;7060;43.770;4.008;2023-04-09T04:57:18;101371.78;;;4.33;62.74
13974;BME280;7060;43.770;4.008;2023-04-09T04:59:47;101380.06;;;4.27;62.34
13974;BME280;7060;43.770;4.008;2023-04-09T05:02:16;101382.44;;;4.31;62.32
13974;BME280;7060;43.770;4.008;2023-04-09T05:05:11;101387.16;;;4.26;62.17
13974;BME280;7060;43.770;4.008;2023-04-09T05:07:46;101383.47;;;4.29;62.54
13974;BME280;7060;43.770;4.008;2023-04-09T05:10:14;101384.06;;;4.34;61.62
13974;BME280;7060;43.770;4.008;2023-04-09T05:12:46;101386.03;;;4.30;62.32
13974;BME280;7060;43.770;4.008;2023-04-09T05:15:24;101387.06;;;4.28;61.81
13974;BME280;7060;43.770;4.008;2023-04-09T05:17:53;101389.72;;;4.28;61.70
13974;BME280;7060;43.770;4.008;2023-04-09T05:20:21;101393.38;;;4.25;62.54
13974;BME280;7060;43.770;4.008;2023-04-09T05:23:01;101393.84;;;4.18;63.07
13974;BME280;7060;43.770;4.008;2023-04-09T05:25:35;101401.78;;;4.18;62.63
13974;BME280;7060;43.770;4.008;2023-04-09T05:28:04;101405.78;;;4.25;63.49
13974;BME280;7060;43.770;4.008;2023-04-09T05:30:34;101403.97;;;4.25;62.86
13974;BME280;7060;43.770;4.008;2023-04-09T05:33:04;101405.69;;;4.26;63.13
13974;BME280;7060;43.770;4.008;2023-04-09T05:35:32;101407.72;;;4.37;62.94
13974;BME280;7060;43.770;4.008;2023-04-09T05:38:02;101398.84;;;4.38;62.74
13974;BME280;7060;43.770;4.008;2023-04-09T05:40:30;101404.97;;;4.38;63.45
13974;BME280;7060;43.770;4.008;2023-04-09T05:42:59;101412.16;;;4.36;63.47
13974;BME280;7060;43.770;4.008;2023-04-09T05:45:38;101402.50;;;4.35;63.23
13974;BME280;7060;43.770;4.008;2023-04-09T05:48:07;101406.50;;;4.42;63.58
13974;BME280;7060;43.770;4.008;2023-04-09T05:50:36;101418.50;;;4.48;63.72
13974;BME280;7060;43.770;4.008;2023-04-09T05:53:21;101413.03;;;4.51;63.81
13974;BME280;7060;43.770;4.008;2023-04-09T05:55:50;101410.03;;;4.57;64.59
13974;BME280;7060;43.770;4.008;2023-04-09T05:58:23;101418.03;;;4.71;63.65
13974;BME280;7060;43.770;4.008;2023-04-09T06:00:53;101425.13;;;4.85;63.79
13974;BME280;7060;43.770;4.008;2023-04-09T06:03:21;101419.91;;;4.99;64.19
13974;BME280;7060;43.770;4.008;2023-04-09T06:05:51;101416.97;;;5.18;63.49
13974;BME280;7060;43.770;4.008;2023-04-09T06:08:19;101420.25;;;5.36;63.41
13974;BME280;7060;43.770;4.008;2023-04-09T06:10:48;101427.19;;;5.53;63.36
13974;BME280;7060;43.770;4.008;2023-04-09T06:13:17;101429.59;;;5.70;63.73
13974;BME280;7060;43.770;4.008;2023-04-09T06:15:45;101433.53;;;5.91;64.01
13974;BME280;7060;43.770;4.008;2023-04-09T06:18:15;101427.94;;;6.23;63.79
13974;BME280;7060;43.770;4.008;2023-04-09T06:20:44;101425.78;;;6.55;63.13
13974;BME280;7060;43.770;4.008;2023-04-09T06:23:12;101433.50;;;6.85;63.22
13974;BME280;7060;43.770;4.008;2023-04-09T06:25:40;101429.16;;;7.09;62.88
13974;BME280;7060;43.770;4.008;2023-04-09T06:28:09;101436.41;;;7.32;62.01
13974;BME280;7060;43.770;4.008;2023-04-09T06:30:38;101439.56;;;7.50;61.43
13974;BME280;7060;43.770;4.008;2023-04-09T06:33:06;101430.38;;;7.67;61.27
13974;BME280;7060;43.770;4.008;2023-04-09T06:35:36;101434.78;;;7.92;60.49
13974;BME280;7060;43.770;4.008;2023-04-09T06:38:05;101437.47;;;8.15;60.86
13974;BME280;7060;43.770;4.008;2023-04-09T06:40:36;101418.91;;;8.38;59.34
13974;BME280;7060;43.770;4.008;2023-04-09T06:43:06;101440.19;;;8.97;58.24
13974;BME280;7060;43.770;4.008;2023-04-09T06:45:49;101446.22;;;9.34;56.70
13974;BME280;7060;43.770;4.008;2023-04-09T06:48:18;101444.88;;;9.62;55.36
13974;BME280;7060;43.770;4.008;2023-04-09T06:50:48;101443.09;;;9.94;54.46
13974;BME280;7060;43.770;4.008;2023-04-09T06:53:16;101444.91;;;10.05;54.08
13974;BME280;7060;43.770;4.008;2023-04-09T06:55:45;101450.00;;;10.08;54.18
13974;BME280;7060;43.770;4.008;2023-04-09T06:58:13;101438.50;;;10.39;53.61
13974;BME280;7060;43.770;4.008;2023-04-09T07:00:42;101440.84;;;10.85;52.71
13974;BME280;7060;43.770;4.008;2023-04-09T07:03:11;101446.53;;;11.43;51.97
13974;BME280;7060;43.770;4.008;2023-04-09T07:05:39;101447.31;;;12.05;50.44
13974;BME280;7060;43.770;4.008;2023-04-09T07:08:09;101449.66;;;12.38;49.68
13974;BME280;7060;43.770;4.008;2023-04-09T07:10:37;101449.94;;;12.64;48.75
13974;BME280;7060;43.770;4.008;2023-04-09T07:13:06;101449.63;;;12.86;47.85
13974;BME280;7060;43.770;4.008;2023-04-09T07:15:34;101446.63;;;13.09;46.94
13974;BME280;7060;43.770;4.008;2023-04-09T07:18:04;101443.56;;;13.31;46.34
13974;BME280;7060;43.770;4.008;2023-04-09T07:20:33;101452.47;;;13.32;46.60
13974;BME280;7060;43.770;4.008;2023-04-09T07:23:02;101452.47;;;13.32;45.84
13974;BME280;7060;43.770;4.008;2023-04-09T07:25:31;101452.91;;;13.27;46.14
13974;BME280;7060;43.770;4.008;2023-04-09T07:28:00;101454.19;;;13.23;45.99
13974;BME280;7060;43.770;4.008;2023-04-09T07:30:29;101453.81;;;13.18;46.27
13974;BME280;7060;43.770;4.008;2023-04-09T07:32:57;101446.47;;;13.10;45.87
13974;BME280;7060;43.770;4.008;2023-04-09T07:35:26;101441.25;;;13.09;46.33
13974;BME280;7060;43.770;4.008;2023-04-09T07:37:54;101438.94;;;13.23;45.65
13974;BME280;7060;43.770;4.008;2023-04-09T07:40:23;101455.31;;;13.30;46.21
13974;BME280;7060;43.770;4.008;2023-04-09T07:42:53;101451.50;;;13.42;46.43
13974;BME280;7060;43.770;4.008;2023-04-09T07:45:22;101446.97;;;13.43;45.61
13974;BME280;7060;43.770;4.008;2023-04-09T07:47:50;101439.19;;;13.40;45.03
13974;BME280;7060;43.770;4.008;2023-04-09T07:50:19;101451.28;;;13.53;45.44
13974;BME280;7060;43.770;4.008;2023-04-09T07:52:47;101454.50;;;13.67;44.84
13974;BME280;7060;43.770;4.008;2023-04-09T07:55:16;101457.59;;;13.72;45.18
13974;BME280;7060;43.770;4.008;2023-04-09T07:57:46;101464.31;;;13.85;45.37
13974;BME280;7060;43.770;4.008;2023-04-09T08:00:17;101457.91;;;13.96;44.30
13974;BME280;7060;43.770;4.008;2023-04-09T08:02:46;101455.22;;;13.96;44.30
13974;BME280;7060;43.770;4.008;2023-04-09T08:05:14;101461.13;;;14.00;44.11
13974;BME280;7060;43.770;4.008;2023-04-09T08:07:43;101460.91;;;14.11;45.02
13974;BME280;7060;43.770;4.008;2023-04-09T08:10:12;101469.16;;;14.27;43.98
13974;BME280;7060;43.770;4.008;2023-04-09T08:12:42;101468.94;;;14.38;42.93
13974;BME280;7060;43.770;4.008;2023-04-09T08:15:10;101467.56;;;14.52;43.26
13974;BME280;7060;43.770;4.008;2023-04-09T08:17:40;101472.03;;;14.61;42.54
13974;BME280;7060;43.770;4.008;2023-04-09T08:20:10;101471.28;;;14.69;42.30
13974;BME280;7060;43.770;4.008;2023-04-09T08:22:38;101469.06;;;14.82;42.18
13974;BME280;7060;43.770;4.008;2023-04-09T08:25:08;101470.63;;;14.93;40.78
13974;BME280;7060;43.770;4.008;2023-04-09T08:27:37;101462.63;;;15.01;41.24
13974;BME280;7060;43.770;4.008;2023-04-09T08:30:06;101470.47;;;15.12;40.82
13974;BME280;7060;43.770;4.008;2023-04-09T08:32:35;101477.94;;;15.26;40.59
13974;BME280;7060;43.770;4.008;2023-04-09T08:35:06;101468.28;;;15.41;39.85
13974;BME280;7060;43.770;4.008;2023-04-09T08:37:35;101469.16;;;15.50;38.96
13974;BME280;7060;43.770;4.008;2023-04-09T08:40:04;101473.00;;;15.65;39.16
13974;BME280;7060;43.770;4.008;2023-04-09T08:42:33;101464.81;;;15.83;38.80
13974;BME280;7060;43.770;4.008;2023-04-09T08:45:03;101475.50;;;15.92;37.99
13974;BME280;7060;43.770;4.008;2023-04-09T08:47:33;101482.09;;;16.06;37.97
13974;BME280;7060;43.770;4.008;2023-04-09T08:50:05;101470.97;;;16.09;37.02
13974;BME280;7060;43.770;4.008;2023-04-09T08:52:33;101470.16;;;16.17;38.49
13974;BME280;7060;43.770;4.008;2023-04-09T08:55:02;101477.41;;;16.24;37.28
13974;BME280;7060;43.770;4.008;2023-04-09T08:57:36;101474.25;;;16.37;36.68
13974;BME280;7060;43.770;4.008;2023-04-09T09:00:06;101468.38;;;16.58;37.85
13974;BME280;7060;43.770;4.008;2023-04-09T09:02:35;101478.38;;;16.82;36.83
13974;BME280;7060;43.770;4.008;2023-04-09T09:05:06;101482.44;;;17.02;36.94
13974;BME280;7060;43.770;4.008;2023-04-09T09:07:35;101480.41;;;17.20;35.31
13974;BME280;7060;43.770;4.008;2023-04-09T09:10:04;101474.44;;;17.33;34.37
13974;BME280;7060;43.770;4.008;2023-04-09T09:12:35;101478.81;;;17.42;33.63
13974;BME280;7060;43.770;4.008;2023-04-09T09:15:05;101468.50;;;17.54;33.09
13974;BME280;7060;43.770;4.008;2023-04-09T09:17:53;101474.56;;;17.64;33.24
13974;BME280;7060;43.770;4.008;2023-04-09T09:20:25;101474.03;;;17.77;34.02
13974;BME280;7060;43.770;4.008;2023-04-09T09:22:54;101470.81;;;17.81;33.60
13974;BME280;7060;43.770;4.008;2023-04-09T09:25:23;101470.09;;;17.87;32.91
13974;BME280;7060;43.770;4.008;2023-04-09T09:27:53;101471.06;;;17.94;31.66
13974;BME280;7060;43.770;4.008;2023-04-09T09:30:22;101475.63;;;17.94;31.53
13974;BME280;7060;43.770;4.008;2023-04-09T09:32:51;101480.34;;;18.00;31.00
13974;BME280;7060;43.770;4.008;2023-04-09T09:35:21;101469.19;;;18.03;30.94
13974;BME280;7060;43.770;4.008;2023-04-09T09:38:01;101463.78;;;18.03;31.84
13974;BME280;7060;43.770;4.008;2023-04-09T09:40:31;101461.25;;;18.02;34.44
13974;BME280;7060;43.770;4.008;2023-04-09T09:42:59;101455.97;;;18.08;33.13
13974;BME280;7060;43.770;4.008;2023-04-09T09:45:28;101460.19;;;18.11;31.36
13974;BME280;7060;43.770;4.008;2023-04-09T09:47:57;101460.28;;;18.17;30.69
13974;BME280;7060;43.770;4.008;2023-04-09T09:50:29;101459.41;;;18.25;31.67
13974;BME280;7060;43.770;4.008;2023-04-09T09:53:02;101455.50;;;18.27;30.58
13974;BME280;7060;43.770;4.008;2023-04-09T09:55:32;101451.44;;;18.32;31.41
13974;BME280;7060;43.770;4.008;2023-04-09T09:58:05;101450.06;;;18.36;30.95
13974;BME280;7060;43.770;4.008;2023-04-09T10:00:39;101453.34;;;18.46;30.60
13974;BME280;7060;43.770;4.008;2023-04-09T10:03:13;101450.81;;;18.52;30.40
13974;BME280;7060;43.770;4.008;2023-04-09T10:05:43;101454.88;;;18.71;30.73
13974;BME280;7060;43.770;4.008;2023-04-09T10:08:13;101441.75;;;18.83;30.38
13974;BME280;7060;43.770;4.008;2023-04-09T10:10:42;101444.09;;;18.86;30.00
13974;BME280;7060;43.770;4.008;2023-04-09T10:13:16;101436.75;;;18.94;30.53
13974;BME280;7060;43.770;4.008;2023-04-09T10:15:45;101435.16;;;19.00;30.89
13974;BME280;7060;43.770;4.008;2023-04-09T10:18:15;101439.66;;;19.08;30.60
13974;BME280;7060;43.770;4.008;2023-04-09T10:20:48;101425.38;;;19.14;30.12
13974;BME280;7060;43.770;4.008;2023-04-09T10:23:30;101422.97;;;19.19;30.31
13974;BME280;7060;43.770;4.008;2023-04-09T10:25:59;101423.25;;;19.24;29.61
13974;BME280;7060;43.770;4.008;2023-04-09T10:28:29;101416.88;;;19.17;30.04
13974;BME280;7060;43.770;4.008;2023-04-09T10:30:58;101413.88;;;19.26;29.91
13974;BME280;7060;43.770;4.008;2023-04-09T10:33:27;101420.25;;;19.34;30.41
13974;BME280;7060;43.770;4.008;2023-04-09T10:35:59;101413.63;;;19.36;29.51
13974;BME280;7060;43.770;4.008;2023-04-09T10:38:37;101408.19;;;19.36;29.56
13974;BME280;7060;43.770;4.008;2023-04-09T10:41:09;101404.78;;;19.42;29.87
13974;BME280;7060;43.770;4.008;2023-04-09T10:43:40;101409.78;;;19.60;30.00
13974;BME280;7060;43.770;4.008;2023-04-09T10:46:24;101395.19;;;19.76;29.17
13974;BME280;7060;43.770;4.008;2023-04-09T10:49:10;101391.13;;;20.01;29.46
13974;BME280;7060;43.770;4.008;2023-04-09T10:51:40;101397.69;;;20.13;28.74
13974;BME280;7060;43.770;4.008;2023-04-09T10:54:40;101379.53;;;20.28;28.86
13974;BME280;7060;43.770;4.008;2023-04-09T10:57:17;101375.25;;;20.41;28.99
13974;BME280;7060;43.770;4.008;2023-04-09T10:59:48;101380.75;;;20.47;28.56
13974;BME280;7060;43.770;4.008;2023-04-09T11:02:36;101374.09;;;20.50;28.04
13974;BME280;7060;43.770;4.008;2023-04-09T11:05:18;101370.06;;;20.46;28.45
13974;BME280;7060;43.770;4.008;2023-04-09T11:07:52;101366.78;;;20.50;28.59
13974;BME280;7060;43.770;4.008;2023-04-09T11:10:23;101364.16;;;20.63;29.19
13974;BME280;7060;43.770;4.008;2023-04-09T11:12:52;101353.75;;;20.67;28.72
13974;BME280;7060;43.770;4.008;2023-04-09T11:15:21;101353.34;;;20.70;28.17
13974;BME280;7060;43.770;4.008;2023-04-09T11:17:49;101360.97;;;20.81;27.86
13974;BME280;7060;43.770;4.008;2023-04-09T11:20:20;101300.19;;;20.61;26.00
13974;BME280;7060;43.770;4.008;2023-04-09T11:22:51;101348.88;;;20.90;26.42
13974;BME280;7060;43.770;4.008;2023-04-09T11:25:21;101361.59;;;21.05;26.86
13974;BME280;7060;43.770;4.008;2023-04-09T11:27:51;101359.16;;;21.23;26.38
13974;BME280;7060;43.770;4.008;2023-04-09T11:30:20;101352.78;;;21.37;26.30
13974;BME280;7060;43.770;4.008;2023-04-09T11:32:49;101359.31;;;21.49;25.90
13974;BME280;7060;43.770;4.008;2023-04-09T11:35:19;101357.84;;;21.53;25.35
13974;BME280;7060;43.770;4.008;2023-04-09T11:37:48;101359.50;;;21.41;24.82
13974;BME280;7060;43.770;4.008;2023-04-09T11:40:19;101352.25;;;21.20;25.33
13974;BME280;7060;43.770;4.008;2023-04-09T11:42:49;101349.50;;;21.14;26.08
13974;BME280;7060;43.770;4.008;2023-04-09T11:45:23;101348.47;;;21.15;25.08
13974;BME280;7060;43.770;4.008;2023-04-09T11:47:53;101344.69;;;21.16;26.03
13974;BME280;7060;43.770;4.008;2023-04-09T11:50:22;101349.72;;;21.19;25.91
13974;BME280;7060;43.770;4.008;2023-04-09T11:52:51;101349.09;;;21.17;26.14
13974;BME280;7060;43.770;4.008;2023-04-09T11:55:24;101342.41;;;21.13;25.40
13974;BME280;7060;43.770;4.008;2023-04-09T11:57:57;101337.66;;;21.00;25.74
13974;BME280;7060;43.770;4.008;2023-04-09T12:00:28;101336.34;;;20.89;26.76
13974;BME280;7060;43.770;4.008;2023-04-09T12:03:01;101336.34;;;20.89;27.53
13974;BME280;7060;43.770;4.008;2023-04-09T12:05:32;101329.09;;;20.69;26.51
13974;BME280;7060;43.770;4.008;2023-04-09T12:08:02;101331.34;;;20.65;26.72
13974;BME280;7060;43.770;4.008;2023-04-09T12:10:32;101338.28;;;20.68;27.74
13974;BME280;7060;43.770;4.008;2023-04-09T12:13:02;101337.56;;;20.80;28.39
13974;BME280;7060;43.770;4.008;2023-04-09T12:15:35;101333.03;;;20.94;27.45
13974;BME280;7060;43.770;4.008;2023-04-09T12:18:08;101215.22;;;20.39;28.48
13974;BME280;7060;43.770;4.008;2023-04-09T12:20:38;101335.72;;;21.22;27.76
13974;BME280;7060;43.770;4.008;2023-04-09T12:23:10;101344.56;;;21.31;26.12
13974;BME280;7060;43.770;4.008;2023-04-09T12:25:40;101313.13;;;21.15;25.91
13974;BME280;7060;43.770;4.008;2023-04-09T12:28:11;101339.13;;;21.31;24.88
13974;BME280;7060;43.770;4.008;2023-04-09T12:30:43;101334.91;;;21.21;24.25
13974;BME280;7060;43.770;4.008;2023-04-09T12:33:12;101332.31;;;21.07;24.92
13974;BME280;7060;43.770;4.008;2023-04-09T12:35:40;101331.72;;;21.11;24.85
13974;BME280;7060;43.770;4.008;2023-04-09T12:38:09;101332.63;;;21.25;24.83
13974;BME280;7060;43.770;4.008;2023-04-09T12:40:38;101335.84;;;21.48;25.20
13974;BME280;7060;43.770;4.008;2023-04-09T12:43:06;101333.88;;;21.70;24.60
13974;BME280;7060;43.770;4.008;2023-04-09T12:45:34;101336.03;;;21.88;23.95
13974;BME280;7060;43.770;4.008;2023-04-09T12:48:05;101326.84;;;21.95;24.53
13974;BME280;7060;43.770;4.008;2023-04-09T12:50:33;101337.31;;;21.92;23.94
13974;BME280;7060;43.770;4.008;2023-04-09T12:53:02;101333.50;;;21.80;23.36
13974;BME280;7060;43.770;4.008;2023-04-09T12:55:30;101333.31;;;21.88;23.98
13974;BME280;7060;43.770;4.008;2023-04-09T12:57:59;101331.47;;;21.95;24.59
13974;BME280;7060;43.770;4.008;2023-04-09T13:00:28;101340.03;;;21.99;25.03
13974;BME280;7060;43.770;4.008;2023-04-09T13:02:57;101333.13;;;21.96;24.28
13974;BME280;7060;43.770;4.008;2023-04-09T13:05:27;101321.19;;;21.97;24.40
13974;BME280;7060;43.770;4.008;2023-04-09T13:07:58;101320.78;;;22.13;24.40
13974;BME280;7060;43.770;4.008;2023-04-09T13:10:27;101291.66;;;21.87;23.86
13974;BME280;7060;43.770;4.008;2023-04-09T13:12:56;101318.66;;;21.89;24.79
13974;BME280;7060;43.770;4.008;2023-04-09T13:15:24;101317.53;;;21.77;25.48
13974;BME280;7060;43.770;4.008;2023-04-09T13:17:54;101323.19;;;21.69;25.41
13974;BME280;7060;43.770;4.008;2023-04-09T13:20:23;101315.44;;;21.72;25.28
13974;BME280;7060;43.770;4.008;2023-04-09T13:22:54;101306.09;;;21.88;24.85
13974;BME280;7060;43.770;4.008;2023-04-09T13:25:22;101313.03;;;22.10;24.29